AXB5303 VOBL-VOTR
Flight info
| Callsign | AXB5303 |
|---|---|
| Flight time | 0h 39m |
| Altitude | 25000 |
| Route | AKTIM7B AKTIM V45 TTR |
| Aircraft | A20N/M-SDE2E3FGHIRWXY/LB1 |
Departure
| Time | 2026-04-17 05:54 |
|---|---|
| Airport | Kempegowda International Airport Bengaluru (VOBL) |
Arrival
| Time | 2026-04-17 06:33 |
|---|---|
| Airport | Tiruchirappalli International Airport (VOTR) |
| Time | Latitude | Longitude | Altitude | Speed | Heading |
|---|---|---|---|---|---|
| 2026-04-17 05:43 | 13.20332 | 77.72055 | 3011 ft | 0 kts | 0° |
| 2026-04-17 05:45 | 13.20327 | 77.72055 | 3011 ft | 2 kts | 0° |
| 2026-04-17 05:45 | 13.20310 | 77.72055 | 3014 ft | 2 kts | 0° |
| 2026-04-17 05:46 | 13.20294 | 77.72055 | 3015 ft | 2 kts | 360° |
| 2026-04-17 05:46 | 13.20277 | 77.72055 | 3011 ft | 2 kts | 355° |
| 2026-04-17 05:46 | 13.20260 | 77.72055 | 3019 ft | 2 kts | 46° |
| 2026-04-17 05:46 | 13.20256 | 77.72047 | 3011 ft | 1 kts | 88° |
| 2026-04-17 05:47 | 13.20256 | 77.72046 | 3011 ft | 0 kts | 88° |
| 2026-04-17 05:47 | 13.20256 | 77.72048 | 3011 ft | 2 kts | 88° |
| 2026-04-17 05:47 | 13.20255 | 77.72087 | 3011 ft | 7 kts | 91° |
| 2026-04-17 05:48 | 13.20254 | 77.72133 | 3011 ft | 6 kts | 90° |
| 2026-04-17 05:48 | 13.20280 | 77.72180 | 3011 ft | 9 kts | 29° |
| 2026-04-17 05:48 | 13.20339 | 77.72184 | 3011 ft | 8 kts | 0° |
| 2026-04-17 05:48 | 13.20390 | 77.72184 | 3015 ft | 7 kts | 2° |
| 2026-04-17 05:49 | 13.20428 | 77.72214 | 3011 ft | 8 kts | 58° |
| 2026-04-17 05:49 | 13.20446 | 77.72265 | 3015 ft | 7 kts | 54° |
| 2026-04-17 05:49 | 13.20483 | 77.72283 | 3011 ft | 5 kts | 7° |
| 2026-04-17 05:49 | 13.20515 | 77.72285 | 3011 ft | 4 kts | 0° |
| 2026-04-17 05:50 | 13.20544 | 77.72285 | 3011 ft | 4 kts | 0° |
| 2026-04-17 05:50 | 13.20579 | 77.72286 | 3015 ft | 6 kts | 0° |
| 2026-04-17 05:50 | 13.20629 | 77.72286 | 3011 ft | 8 kts | 360° |
| 2026-04-17 05:50 | 13.20683 | 77.72259 | 3011 ft | 10 kts | 297° |
| 2026-04-17 05:51 | 13.20690 | 77.72181 | 3011 ft | 8 kts | 270° |
| 2026-04-17 05:51 | 13.20690 | 77.72179 | 3011 ft | 0 kts | 270° |
| 2026-04-17 05:52 | 13.20690 | 77.72178 | 3011 ft | 0 kts | 270° |
| 2026-04-17 05:53 | 13.20690 | 77.72138 | 3011 ft | 30 kts | 270° |
| 2026-04-17 05:53 | 13.20694 | 77.71674 | 3011 ft | 100 kts | 270° |
| 2026-04-17 05:53 | 13.20702 | 77.70757 | 3011 ft | 155 kts | 270° |
| 2026-04-17 05:53 | 13.20705 | 77.69524 | 3255 ft | 178 kts | 270° |
| 2026-04-17 05:54 | 13.20675 | 77.68268 | 3986 ft | 178 kts | 257° |
| 2026-04-17 05:54 | 13.20062 | 77.67190 | 4605 ft | 178 kts | 213° |
| 2026-04-17 05:54 | 13.18927 | 77.66665 | 5090 ft | 187 kts | 192° |
| 2026-04-17 05:54 | 13.17631 | 77.66212 | 5576 ft | 209 kts | 201° |
| 2026-04-17 05:55 | 13.16328 | 77.65394 | 5996 ft | 232 kts | 216° |
| 2026-04-17 05:55 | 13.15084 | 77.64217 | 6402 ft | 257 kts | 225° |
| 2026-04-17 05:55 | 13.13931 | 77.62868 | 6852 ft | 281 kts | 229° |
| 2026-04-17 05:55 | 13.12664 | 77.61249 | 7358 ft | 298 kts | 230° |
| 2026-04-17 05:56 | 13.11370 | 77.59550 | 8198 ft | 306 kts | 231° |
| 2026-04-17 05:56 | 13.10092 | 77.57892 | 9042 ft | 311 kts | 227° |
| 2026-04-17 05:56 | 13.08450 | 77.56550 | 9808 ft | 313 kts | 202° |
| 2026-04-17 05:56 | 13.06364 | 77.55925 | 10467 ft | 318 kts | 182° |
| 2026-04-17 05:57 | 13.04086 | 77.55808 | 10803 ft | 338 kts | 174° |
| 2026-04-17 05:57 | 13.01656 | 77.55902 | 11182 ft | 357 kts | 173° |
| 2026-04-17 05:57 | 12.99164 | 77.56030 | 11922 ft | 361 kts | 173° |
| 2026-04-17 05:57 | 12.96656 | 77.56135 | 12750 ft | 364 kts | 173° |
| 2026-04-17 05:58 | 12.94097 | 77.56222 | 13504 ft | 369 kts | 174° |
| 2026-04-17 05:58 | 12.91522 | 77.56293 | 14244 ft | 372 kts | 174° |
| 2026-04-17 05:58 | 12.88930 | 77.56353 | 15010 ft | 373 kts | 175° |
| 2026-04-17 05:59 | 12.83734 | 77.56469 | 16495 ft | 376 kts | 176° |
| 2026-04-17 05:59 | 12.81995 | 77.56507 | 16971 ft | 377 kts | 176° |
| 2026-04-17 05:59 | 12.75926 | 77.56650 | 18498 ft | 382 kts | 176° |
| 2026-04-17 06:00 | 12.73257 | 77.56713 | 19024 ft | 386 kts | 177° |
| 2026-04-17 06:00 | 12.70573 | 77.56775 | 19576 ft | 389 kts | 177° |
| 2026-04-17 06:00 | 12.67833 | 77.56840 | 20156 ft | 393 kts | 177° |
| 2026-04-17 06:00 | 12.65087 | 77.56903 | 20682 ft | 396 kts | 177° |
| 2026-04-17 06:01 | 12.62319 | 77.56969 | 21190 ft | 400 kts | 177° |
| 2026-04-17 06:01 | 12.59537 | 77.57035 | 21703 ft | 403 kts | 177° |
| 2026-04-17 06:01 | 12.56720 | 77.57102 | 22229 ft | 406 kts | 177° |
| 2026-04-17 06:01 | 12.53875 | 77.57168 | 22702 ft | 410 kts | 177° |
| 2026-04-17 06:02 | 12.51017 | 77.57234 | 23191 ft | 413 kts | 177° |
| 2026-04-17 06:02 | 12.48127 | 77.57301 | 23645 ft | 416 kts | 177° |
| 2026-04-17 06:02 | 12.45228 | 77.57368 | 24053 ft | 419 kts | 178° |
| 2026-04-17 06:02 | 12.42303 | 77.57436 | 24469 ft | 421 kts | 178° |
| 2026-04-17 06:03 | 12.39360 | 77.57505 | 24840 ft | 424 kts | 178° |
| 2026-04-17 06:03 | 12.36443 | 77.57572 | 24981 ft | 426 kts | 178° |
| 2026-04-17 06:03 | 12.33478 | 77.57641 | 25017 ft | 425 kts | 178° |
| 2026-04-17 06:03 | 12.30518 | 77.57709 | 25014 ft | 424 kts | 178° |
| 2026-04-17 06:04 | 12.27547 | 77.57777 | 25016 ft | 425 kts | 178° |
| 2026-04-17 06:04 | 12.24585 | 77.57846 | 25011 ft | 426 kts | 178° |
| 2026-04-17 06:04 | 12.21655 | 77.57916 | 25007 ft | 425 kts | 178° |
| 2026-04-17 06:04 | 12.18692 | 77.57985 | 25002 ft | 425 kts | 178° |
| 2026-04-17 06:05 | 12.15730 | 77.58053 | 25000 ft | 426 kts | 178° |
| 2026-04-17 06:05 | 12.12761 | 77.58122 | 24997 ft | 426 kts | 178° |
| 2026-04-17 06:05 | 12.09794 | 77.58218 | 24996 ft | 425 kts | 174° |
| 2026-04-17 06:05 | 12.06920 | 77.58815 | 24995 ft | 424 kts | 160° |
| 2026-04-17 06:06 | 12.04236 | 77.60091 | 24993 ft | 424 kts | 147° |
| 2026-04-17 06:06 | 12.02668 | 77.61260 | 24987 ft | 423 kts | 139° |
| 2026-04-17 06:06 | 12.00426 | 77.63234 | 24977 ft | 424 kts | 139° |
| 2026-04-17 06:06 | 11.97474 | 77.65825 | 24980 ft | 424 kts | 139° |
| 2026-04-17 06:07 | 11.95229 | 77.67789 | 24973 ft | 423 kts | 139° |
| 2026-04-17 06:07 | 11.93721 | 77.69108 | 24971 ft | 423 kts | 139° |
| 2026-04-17 06:07 | 11.91514 | 77.71038 | 24965 ft | 423 kts | 139° |
| 2026-04-17 06:07 | 11.89265 | 77.73001 | 24960 ft | 423 kts | 139° |
| 2026-04-17 06:08 | 11.87027 | 77.74955 | 24952 ft | 423 kts | 139° |
| 2026-04-17 06:08 | 11.84788 | 77.76909 | 24946 ft | 423 kts | 139° |
| 2026-04-17 06:08 | 11.82551 | 77.78861 | 24944 ft | 423 kts | 139° |
| 2026-04-17 06:08 | 11.80308 | 77.80820 | 24926 ft | 423 kts | 139° |
| 2026-04-17 06:09 | 11.78066 | 77.82776 | 24747 ft | 423 kts | 139° |
| 2026-04-17 06:09 | 11.75865 | 77.84696 | 24525 ft | 421 kts | 139° |
| 2026-04-17 06:09 | 11.73650 | 77.86628 | 24308 ft | 419 kts | 139° |
| 2026-04-17 06:09 | 11.71442 | 77.88554 | 24088 ft | 417 kts | 139° |
| 2026-04-17 06:10 | 11.69238 | 77.90475 | 23870 ft | 416 kts | 139° |
| 2026-04-17 06:10 | 11.67036 | 77.92394 | 23652 ft | 415 kts | 139° |
| 2026-04-17 06:10 | 11.64849 | 77.94301 | 23317 ft | 414 kts | 139° |
| 2026-04-17 06:10 | 11.62645 | 77.96222 | 22757 ft | 414 kts | 139° |
| 2026-04-17 06:11 | 11.60481 | 77.98142 | 22201 ft | 410 kts | 138° |
| 2026-04-17 06:11 | 11.58348 | 78.00052 | 21659 ft | 406 kts | 138° |
| 2026-04-17 06:11 | 11.56241 | 78.01942 | 21108 ft | 401 kts | 138° |
| 2026-04-17 06:11 | 11.54179 | 78.03789 | 20577 ft | 397 kts | 138° |
| 2026-04-17 06:12 | 11.52135 | 78.05615 | 20047 ft | 393 kts | 138° |
| 2026-04-17 06:12 | 11.50087 | 78.07443 | 19452 ft | 391 kts | 137° |
| 2026-04-17 06:12 | 11.48038 | 78.09269 | 18960 ft | 386 kts | 137° |
| 2026-04-17 06:12 | 11.46026 | 78.11063 | 18415 ft | 383 kts | 137° |
| 2026-04-17 06:13 | 11.44020 | 78.12850 | 17883 ft | 379 kts | 137° |
| 2026-04-17 06:13 | 11.42052 | 78.14605 | 17349 ft | 375 kts | 137° |
| 2026-04-17 06:13 | 11.40094 | 78.16350 | 16818 ft | 371 kts | 137° |
| 2026-04-17 06:13 | 11.38185 | 78.18051 | 16304 ft | 368 kts | 137° |
| 2026-04-17 06:14 | 11.36263 | 78.19764 | 15773 ft | 365 kts | 137° |
| 2026-04-17 06:14 | 11.34357 | 78.21462 | 15209 ft | 364 kts | 136° |
| 2026-04-17 06:14 | 11.32456 | 78.23156 | 14751 ft | 361 kts | 136° |
| 2026-04-17 06:14 | 11.30560 | 78.24843 | 14221 ft | 360 kts | 136° |
| 2026-04-17 06:15 | 11.28679 | 78.26518 | 13683 ft | 359 kts | 136° |
| 2026-04-17 06:15 | 11.26800 | 78.28191 | 13200 ft | 355 kts | 136° |
| 2026-04-17 06:15 | 11.24956 | 78.29832 | 12713 ft | 350 kts | 136° |
| 2026-04-17 06:15 | 11.23132 | 78.31455 | 12239 ft | 345 kts | 136° |
| 2026-04-17 06:16 | 11.21358 | 78.33033 | 11760 ft | 342 kts | 136° |
| 2026-04-17 06:16 | 11.19577 | 78.34617 | 11284 ft | 339 kts | 136° |
| 2026-04-17 06:16 | 11.17808 | 78.36189 | 10822 ft | 335 kts | 136° |
| 2026-04-17 06:16 | 11.16054 | 78.37749 | 10364 ft | 332 kts | 135° |
| 2026-04-17 06:17 | 11.14357 | 78.39257 | 10199 ft | 320 kts | 135° |
| 2026-04-17 06:17 | 11.12713 | 78.40715 | 10091 ft | 306 kts | 135° |
| 2026-04-17 06:17 | 11.11141 | 78.42110 | 9984 ft | 293 kts | 135° |
| 2026-04-17 06:17 | 11.09621 | 78.43461 | 9731 ft | 286 kts | 135° |
| 2026-04-17 06:18 | 11.08149 | 78.44771 | 9445 ft | 280 kts | 135° |
| 2026-04-17 06:18 | 11.06676 | 78.46084 | 9078 ft | 278 kts | 135° |
| 2026-04-17 06:18 | 11.05229 | 78.47373 | 8705 ft | 276 kts | 135° |
| 2026-04-17 06:18 | 11.03783 | 78.48660 | 8329 ft | 274 kts | 135° |
| 2026-04-17 06:19 | 11.02364 | 78.49923 | 7968 ft | 273 kts | 135° |
| 2026-04-17 06:19 | 11.00934 | 78.51194 | 7593 ft | 272 kts | 135° |
| 2026-04-17 06:19 | 10.99513 | 78.52458 | 7224 ft | 271 kts | 135° |
| 2026-04-17 06:19 | 10.98087 | 78.53725 | 6844 ft | 271 kts | 136° |
| 2026-04-17 06:20 | 10.96661 | 78.54993 | 6481 ft | 271 kts | 136° |
| 2026-04-17 06:20 | 10.95231 | 78.56263 | 6108 ft | 272 kts | 136° |
| 2026-04-17 06:20 | 10.93830 | 78.57509 | 5694 ft | 273 kts | 136° |
| 2026-04-17 06:20 | 10.92865 | 78.58367 | 5457 ft | 272 kts | 137° |
| 2026-04-17 06:21 | 10.90972 | 78.60048 | 4949 ft | 273 kts | 137° |
| 2026-04-17 06:21 | 10.89541 | 78.61321 | 4534 ft | 275 kts | 137° |
| 2026-04-17 06:21 | 10.88101 | 78.62598 | 4176 ft | 273 kts | 137° |
| 2026-04-17 06:21 | 10.86663 | 78.63873 | 3831 ft | 272 kts | 138° |
| 2026-04-17 06:22 | 10.85234 | 78.65140 | 3457 ft | 272 kts | 138° |
| 2026-04-17 06:22 | 10.83809 | 78.66407 | 3122 ft | 272 kts | 138° |
| 2026-04-17 06:22 | 10.82412 | 78.67648 | 2835 ft | 268 kts | 139° |
| 2026-04-17 06:22 | 10.81030 | 78.68871 | 2733 ft | 257 kts | 139° |
| 2026-04-17 06:23 | 10.79704 | 78.70044 | 2647 ft | 247 kts | 138° |
| 2026-04-17 06:23 | 10.78432 | 78.71168 | 2565 ft | 238 kts | 139° |
| 2026-04-17 06:23 | 10.77210 | 78.72247 | 2481 ft | 228 kts | 138° |
| 2026-04-17 06:23 | 10.76066 | 78.73315 | 2384 ft | 221 kts | 128° |
| 2026-04-17 06:24 | 10.75504 | 78.74709 | 2293 ft | 210 kts | 92° |
| 2026-04-17 06:24 | 10.75792 | 78.76083 | 2313 ft | 193 kts | 66° |
| 2026-04-17 06:24 | 10.76368 | 78.77251 | 2295 ft | 176 kts | 64° |
| 2026-04-17 06:24 | 10.76826 | 78.78327 | 2298 ft | 157 kts | 71° |
| 2026-04-17 06:25 | 10.77125 | 78.79341 | 2302 ft | 151 kts | 77° |
| 2026-04-17 06:25 | 10.77327 | 78.80400 | 2294 ft | 152 kts | 82° |
| 2026-04-17 06:25 | 10.77460 | 78.81467 | 2296 ft | 150 kts | 84° |
| 2026-04-17 06:25 | 10.77558 | 78.82530 | 2286 ft | 150 kts | 85° |
| 2026-04-17 06:26 | 10.77645 | 78.83595 | 2302 ft | 153 kts | 85° |
| 2026-04-17 06:26 | 10.77827 | 78.84297 | 2276 ft | 152 kts | 57° |
| 2026-04-17 06:27 | 10.80926 | 78.86402 | 2293 ft | 154 kts | 36° |
| 2026-04-17 06:27 | 10.81791 | 78.87057 | 2285 ft | 154 kts | 39° |
| 2026-04-17 06:27 | 10.82406 | 78.87892 | 2276 ft | 149 kts | 85° |
| 2026-04-17 06:27 | 10.82049 | 78.88854 | 2289 ft | 154 kts | 143° |
| 2026-04-17 06:28 | 10.81035 | 78.89035 | 2285 ft | 154 kts | 200° |
| 2026-04-17 06:28 | 10.80098 | 78.88486 | 2284 ft | 156 kts | 217° |
| 2026-04-17 06:28 | 10.79257 | 78.87793 | 2293 ft | 155 kts | 219° |
| 2026-04-17 06:28 | 10.78719 | 78.87311 | 2301 ft | 158 kts | 224° |
| 2026-04-17 06:29 | 10.77991 | 78.86037 | 2302 ft | 157 kts | 253° |
| 2026-04-17 06:29 | 10.77778 | 78.84939 | 2290 ft | 158 kts | 263° |
| 2026-04-17 06:29 | 10.77669 | 78.83826 | 2274 ft | 160 kts | 266° |
| 2026-04-17 06:29 | 10.77574 | 78.82695 | 2106 ft | 160 kts | 264° |
| 2026-04-17 06:30 | 10.77477 | 78.81596 | 1921 ft | 155 kts | 265° |
| 2026-04-17 06:30 | 10.77382 | 78.80489 | 1730 ft | 158 kts | 264° |
| 2026-04-17 06:30 | 10.77335 | 78.79942 | 1625 ft | 157 kts | 264° |
| 2026-04-17 06:30 | 10.77271 | 78.79198 | 1489 ft | 156 kts | 264° |
| 2026-04-17 06:31 | 10.77145 | 78.77735 | 1221 ft | 156 kts | 265° |
| 2026-04-17 06:31 | 10.77051 | 78.76641 | 1039 ft | 155 kts | 264° |
| 2026-04-17 06:31 | 10.76993 | 78.75961 | 930 ft | 157 kts | 265° |
| 2026-04-17 06:32 | 10.76918 | 78.75110 | 750 ft | 154 kts | 262° |
| 2026-04-17 06:32 | 10.76819 | 78.74023 | 557 ft | 153 kts | 263° |
| 2026-04-17 06:32 | 10.76725 | 78.72934 | 393 ft | 158 kts | 263° |
| 2026-04-17 06:33 | 10.76627 | 78.71838 | 297 ft | 152 kts | 263° |
| 2026-04-17 06:33 | 10.76543 | 78.70888 | 300 ft | 112 kts | 264° |
| 2026-04-17 06:33 | 10.76532 | 78.70495 | 302 ft | 0 kts | 329° |
| 2026-04-17 06:33 | 10.76533 | 78.70495 | 302 ft | 0 kts | 336° |
| 2026-04-17 06:34 | 10.76534 | 78.70496 | 302 ft | 0 kts | 347° |
| 2026-04-17 06:34 | 10.76572 | 78.70513 | 301 ft | 10 kts | 42° |
| 2026-04-17 06:34 | 10.76575 | 78.70530 | 302 ft | 1 kts | 106° |